sensor_id;sensor_type;location;lat;lon;timestamp;P1;durP1;ratioP1;P2;durP2;ratioP2
66597;SDS011;57424;53.128;6.406;2022-10-16T00:01:03;3.90;;;1.80;;
66597;SDS011;57424;53.128;6.406;2022-10-16T00:03:34;3.22;;;2.05;;
66597;SDS011;57424;53.128;6.406;2022-10-16T00:06:00;3.85;;;1.77;;
66597;SDS011;57424;53.128;6.406;2022-10-16T00:08:26;3.42;;;1.70;;
66597;SDS011;57424;53.128;6.406;2022-10-16T00:10:52;3.05;;;1.77;;
66597;SDS011;57424;53.128;6.406;2022-10-16T00:13:18;3.25;;;1.75;;
66597;SDS011;57424;53.128;6.406;2022-10-16T00:15:45;2.90;;;1.70;;
66597;SDS011;57424;53.128;6.406;2022-10-16T00:18:11;3.50;;;1.60;;
66597;SDS011;57424;53.128;6.406;2022-10-16T00:23:04;2.50;;;1.70;;
66597;SDS011;57424;53.128;6.406;2022-10-16T00:25:30;3.58;;;1.77;;
66597;SDS011;57424;53.128;6.406;2022-10-16T00:27:58;4.30;;;1.80;;
66597;SDS011;57424;53.128;6.406;2022-10-16T00:30:24;2.78;;;1.80;;
66597;SDS011;57424;53.128;6.406;2022-10-16T00:32:52;2.22;;;1.60;;
66597;SDS011;57424;53.128;6.406;2022-10-16T00:35:18;2.60;;;1.52;;
66597;SDS011;57424;53.128;6.406;2022-10-16T00:37:43;4.90;;;1.60;;
66597;SDS011;57424;53.128;6.406;2022-10-16T00:40:09;3.42;;;1.73;;
66597;SDS011;57424;53.128;6.406;2022-10-16T00:42:35;3.83;;;1.63;;
66597;SDS011;57424;53.128;6.406;2022-10-16T00:45:01;3.60;;;1.40;;
66597;SDS011;57424;53.128;6.406;2022-10-16T00:47:29;2.42;;;1.45;;
66597;SDS011;57424;53.128;6.406;2022-10-16T00:50:04;2.83;;;1.95;;
66597;SDS011;57424;53.128;6.406;2022-10-16T00:52:51;3.55;;;1.40;;
66597;SDS011;57424;53.128;6.406;2022-10-16T00:55:18;3.88;;;1.88;;
66597;SDS011;57424;53.128;6.406;2022-10-16T00:57:44;2.95;;;1.60;;
66597;SDS011;57424;53.128;6.406;2022-10-16T01:00:14;4.65;;;1.77;;
66597;SDS011;57424;53.128;6.406;2022-10-16T01:02:43;2.70;;;1.50;;
66597;SDS011;57424;53.128;6.406;2022-10-16T01:05:08;3.53;;;1.48;;
66597;SDS011;57424;53.128;6.406;2022-10-16T01:10:14;3.47;;;1.55;;
66597;SDS011;57424;53.128;6.406;2022-10-16T01:13:05;3.08;;;1.73;;
66597;SDS011;57424;53.128;6.406;2022-10-16T01:15:42;3.80;;;1.60;;
66597;SDS011;57424;53.128;6.406;2022-10-16T01:20:59;3.33;;;1.70;;
66597;SDS011;57424;53.128;6.406;2022-10-16T01:26:50;2.63;;;1.45;;
66597;SDS011;57424;53.128;6.406;2022-10-16T01:29:34;2.83;;;1.42;;
66597;SDS011;57424;53.128;6.406;2022-10-16T01:37:33;2.85;;;1.50;;
66597;SDS011;57424;53.128;6.406;2022-10-16T01:40:05;3.33;;;1.50;;
66597;SDS011;57424;53.128;6.406;2022-10-16T01:42:35;3.30;;;1.80;;
66597;SDS011;57424;53.128;6.406;2022-10-16T01:45:04;2.13;;;1.52;;
66597;SDS011;57424;53.128;6.406;2022-10-16T01:47:32;3.38;;;1.42;;
66597;SDS011;57424;53.128;6.406;2022-10-16T01:49:59;3.10;;;1.50;;
66597;SDS011;57424;53.128;6.406;2022-10-16T01:52:26;2.97;;;1.33;;
66597;SDS011;57424;53.128;6.406;2022-10-16T01:54:54;3.55;;;1.50;;
66597;SDS011;57424;53.128;6.406;2022-10-16T01:57:22;2.63;;;1.42;;
66597;SDS011;57424;53.128;6.406;2022-10-16T01:59:52;2.20;;;1.73;;
66597;SDS011;57424;53.128;6.406;2022-10-16T02:02:21;4.00;;;1.33;;
66597;SDS011;57424;53.128;6.406;2022-10-16T02:04:53;2.47;;;1.33;;
66597;SDS011;57424;53.128;6.406;2022-10-16T02:07:23;2.13;;;1.17;;
66597;SDS011;57424;53.128;6.406;2022-10-16T02:09:48;3.08;;;1.60;;
66597;SDS011;57424;53.128;6.406;2022-10-16T02:12:25;3.83;;;1.48;;
66597;SDS011;57424;53.128;6.406;2022-10-16T02:14:56;2.35;;;1.35;;
66597;SDS011;57424;53.128;6.406;2022-10-16T02:17:22;2.38;;;1.70;;
66597;SDS011;57424;53.128;6.406;2022-10-16T02:19:49;3.00;;;1.40;;
66597;SDS011;57424;53.128;6.406;2022-10-16T02:22:37;2.47;;;1.40;;
66597;SDS011;57424;53.128;6.406;2022-10-16T02:27:57;2.72;;;1.13;;
66597;SDS011;57424;53.128;6.406;2022-10-16T02:30:51;1.92;;;1.42;;
66597;SDS011;57424;53.128;6.406;2022-10-16T02:33:23;2.35;;;1.35;;
66597;SDS011;57424;53.128;6.406;2022-10-16T02:35:50;2.15;;;1.35;;
66597;SDS011;57424;53.128;6.406;2022-10-16T02:38:17;2.75;;;1.30;;
66597;SDS011;57424;53.128;6.406;2022-10-16T02:40:45;2.75;;;1.30;;
66597;SDS011;57424;53.128;6.406;2022-10-16T02:43:11;1.55;;;1.05;;
66597;SDS011;57424;53.128;6.406;2022-10-16T02:45:36;2.63;;;1.20;;
66597;SDS011;57424;53.128;6.406;2022-10-16T02:48:02;2.17;;;1.30;;
66597;SDS011;57424;53.128;6.406;2022-10-16T02:50:28;1.60;;;1.30;;
66597;SDS011;57424;53.128;6.406;2022-10-16T02:52:53;1.38;;;1.10;;
66597;SDS011;57424;53.128;6.406;2022-10-16T02:55:19;1.98;;;1.20;;
66597;SDS011;57424;53.128;6.406;2022-10-16T02:57:44;1.83;;;1.10;;
66597;SDS011;57424;53.128;6.406;2022-10-16T03:00:12;2.38;;;1.30;;
66597;SDS011;57424;53.128;6.406;2022-10-16T03:05:04;2.20;;;1.23;;
66597;SDS011;57424;53.128;6.406;2022-10-16T03:07:30;2.30;;;1.10;;
66597;SDS011;57424;53.128;6.406;2022-10-16T03:09:56;3.08;;;1.58;;
66597;SDS011;57424;53.128;6.406;2022-10-16T03:12:25;1.98;;;1.10;;
66597;SDS011;57424;53.128;6.406;2022-10-16T03:14:55;2.58;;;1.15;;
66597;SDS011;57424;53.128;6.406;2022-10-16T03:17:21;2.92;;;1.27;;
66597;SDS011;57424;53.128;6.406;2022-10-16T03:19:47;2.15;;;1.17;;
66597;SDS011;57424;53.128;6.406;2022-10-16T03:22:13;3.03;;;1.35;;
66597;SDS011;57424;53.128;6.406;2022-10-16T03:24:39;3.35;;;1.33;;
66597;SDS011;57424;53.128;6.406;2022-10-16T03:27:04;2.00;;;1.40;;
66597;SDS011;57424;53.128;6.406;2022-10-16T03:29:30;2.30;;;1.13;;
66597;SDS011;57424;53.128;6.406;2022-10-16T03:31:57;1.83;;;1.30;;
66597;SDS011;57424;53.128;6.406;2022-10-16T03:34:23;2.13;;;1.10;;
66597;SDS011;57424;53.128;6.406;2022-10-16T03:36:49;2.20;;;1.10;;
66597;SDS011;57424;53.128;6.406;2022-10-16T03:39:15;1.77;;;1.13;;
66597;SDS011;57424;53.128;6.406;2022-10-16T03:41:40;2.53;;;1.25;;
66597;SDS011;57424;53.128;6.406;2022-10-16T03:44:06;3.50;;;1.30;;
66597;SDS011;57424;53.128;6.406;2022-10-16T03:46:31;2.72;;;1.30;;
66597;SDS011;57424;53.128;6.406;2022-10-16T03:48:57;1.98;;;1.27;;
66597;SDS011;57424;53.128;6.406;2022-10-16T03:51:22;2.88;;;1.30;;
66597;SDS011;57424;53.128;6.406;2022-10-16T03:53:48;1.42;;;1.20;;
66597;SDS011;57424;53.128;6.406;2022-10-16T03:56:13;2.42;;;1.08;;
66597;SDS011;57424;53.128;6.406;2022-10-16T03:58:39;1.73;;;1.30;;
66597;SDS011;57424;53.128;6.406;2022-10-16T04:01:05;1.63;;;1.10;;
66597;SDS011;57424;53.128;6.406;2022-10-16T04:03:30;2.33;;;1.05;;
66597;SDS011;57424;53.128;6.406;2022-10-16T04:05:56;3.10;;;1.20;;
66597;SDS011;57424;53.128;6.406;2022-10-16T04:08:22;2.00;;;1.08;;
66597;SDS011;57424;53.128;6.406;2022-10-16T04:10:47;1.30;;;1.10;;
66597;SDS011;57424;53.128;6.406;2022-10-16T04:13:13;3.72;;;0.93;;
66597;SDS011;57424;53.128;6.406;2022-10-16T04:15:39;2.03;;;1.05;;
66597;SDS011;57424;53.128;6.406;2022-10-16T04:18:05;1.30;;;1.05;;
66597;SDS011;57424;53.128;6.406;2022-10-16T04:20:30;1.50;;;1.25;;
66597;SDS011;57424;53.128;6.406;2022-10-16T04:22:56;1.77;;;1.10;;
66597;SDS011;57424;53.128;6.406;2022-10-16T04:25:22;1.05;;;0.70;;
66597;SDS011;57424;53.128;6.406;2022-10-16T04:27:47;1.98;;;1.10;;
66597;SDS011;57424;53.128;6.406;2022-10-16T04:30:13;1.98;;;1.10;;
66597;SDS011;57424;53.128;6.406;2022-10-16T04:32:39;1.52;;;1.08;;
66597;SDS011;57424;53.128;6.406;2022-10-16T04:35:05;1.25;;;0.95;;
66597;SDS011;57424;53.128;6.406;2022-10-16T04:37:31;1.48;;;1.02;;
66597;SDS011;57424;53.128;6.406;2022-10-16T04:39:56;1.42;;;0.90;;
66597;SDS011;57424;53.128;6.406;2022-10-16T04:42:22;1.77;;;1.10;;
66597;SDS011;57424;53.128;6.406;2022-10-16T04:44:47;1.90;;;1.20;;
66597;SDS011;57424;53.128;6.406;2022-10-16T04:47:13;1.35;;;1.00;;
66597;SDS011;57424;53.128;6.406;2022-10-16T04:49:39;1.30;;;0.98;;
66597;SDS011;57424;53.128;6.406;2022-10-16T04:52:05;1.95;;;1.15;;
66597;SDS011;57424;53.128;6.406;2022-10-16T04:54:30;2.28;;;1.10;;
66597;SDS011;57424;53.128;6.406;2022-10-16T04:56:56;2.83;;;1.33;;
66597;SDS011;57424;53.128;6.406;2022-10-16T04:59:22;2.45;;;1.20;;
66597;SDS011;57424;53.128;6.406;2022-10-16T05:01:49;1.48;;;1.08;;
66597;SDS011;57424;53.128;6.406;2022-10-16T05:04:15;1.98;;;1.25;;
66597;SDS011;57424;53.128;6.406;2022-10-16T05:06:40;2.60;;;1.40;;
66597;SDS011;57424;53.128;6.406;2022-10-16T05:09:07;0.98;;;0.95;;
66597;SDS011;57424;53.128;6.406;2022-10-16T05:11:33;3.97;;;1.50;;
66597;SDS011;57424;53.128;6.406;2022-10-16T05:13:59;1.73;;;1.40;;
66597;SDS011;57424;53.128;6.406;2022-10-16T05:16:25;2.08;;;1.15;;
66597;SDS011;57424;53.128;6.406;2022-10-16T05:18:51;2.45;;;1.17;;
66597;SDS011;57424;53.128;6.406;2022-10-16T05:21:17;1.75;;;1.17;;
66597;SDS011;57424;53.128;6.406;2022-10-16T05:23:43;1.60;;;1.00;;
66597;SDS011;57424;53.128;6.406;2022-10-16T05:26:09;1.17;;;0.90;;
66597;SDS011;57424;53.128;6.406;2022-10-16T05:28:34;2.25;;;1.20;;
66597;SDS011;57424;53.128;6.406;2022-10-16T05:31:03;1.10;;;1.00;;
66597;SDS011;57424;53.128;6.406;2022-10-16T05:33:33;1.67;;;1.10;;
66597;SDS011;57424;53.128;6.406;2022-10-16T05:36:02;1.90;;;1.20;;
66597;SDS011;57424;53.128;6.406;2022-10-16T05:38:32;1.30;;;0.90;;
66597;SDS011;57424;53.128;6.406;2022-10-16T05:40:58;1.52;;;1.02;;
66597;SDS011;57424;53.128;6.406;2022-10-16T05:43:24;1.98;;;1.10;;
66597;SDS011;57424;53.128;6.406;2022-10-16T05:45:53;2.35;;;1.20;;
66597;SDS011;57424;53.128;6.406;2022-10-16T05:48:20;1.10;;;0.90;;
66597;SDS011;57424;53.128;6.406;2022-10-16T05:50:45;1.58;;;1.00;;
66597;SDS011;57424;53.128;6.406;2022-10-16T05:53:11;3.35;;;1.25;;
66597;SDS011;57424;53.128;6.406;2022-10-16T05:55:36;1.50;;;1.02;;
66597;SDS011;57424;53.128;6.406;2022-10-16T05:58:02;2.17;;;0.82;;
66597;SDS011;57424;53.128;6.406;2022-10-16T06:00:27;2.25;;;1.10;;
66597;SDS011;57424;53.128;6.406;2022-10-16T06:02:53;2.38;;;0.90;;
66597;SDS011;57424;53.128;6.406;2022-10-16T06:05:18;1.42;;;0.98;;
66597;SDS011;57424;53.128;6.406;2022-10-16T06:07:44;1.45;;;0.93;;
66597;SDS011;57424;53.128;6.406;2022-10-16T06:10:09;1.77;;;1.10;;
66597;SDS011;57424;53.128;6.406;2022-10-16T06:12:35;2.17;;;1.10;;
66597;SDS011;57424;53.128;6.406;2022-10-16T06:15:00;1.50;;;0.95;;
66597;SDS011;57424;53.128;6.406;2022-10-16T06:17:26;1.58;;;1.05;;
66597;SDS011;57424;53.128;6.406;2022-10-16T06:19:51;1.55;;;1.13;;
66597;SDS011;57424;53.128;6.406;2022-10-16T06:22:17;1.40;;;0.80;;
66597;SDS011;57424;53.128;6.406;2022-10-16T06:24:43;1.05;;;0.80;;
66597;SDS011;57424;53.128;6.406;2022-10-16T06:27:08;1.70;;;1.17;;
66597;SDS011;57424;53.128;6.406;2022-10-16T06:29:34;1.55;;;1.13;;
66597;SDS011;57424;53.128;6.406;2022-10-16T06:31:59;2.75;;;0.98;;
66597;SDS011;57424;53.128;6.406;2022-10-16T06:34:25;1.45;;;0.90;;
66597;SDS011;57424;53.128;6.406;2022-10-16T06:36:50;1.70;;;1.00;;
66597;SDS011;57424;53.128;6.406;2022-10-16T06:39:16;1.35;;;0.98;;
66597;SDS011;57424;53.128;6.406;2022-10-16T06:41:41;1.70;;;1.08;;
66597;SDS011;57424;53.128;6.406;2022-10-16T06:44:07;1.20;;;0.90;;
66597;SDS011;57424;53.128;6.406;2022-10-16T06:46:33;1.55;;;0.95;;
66597;SDS011;57424;53.128;6.406;2022-10-16T06:48:58;3.38;;;1.10;;
66597;SDS011;57424;53.128;6.406;2022-10-16T06:51:25;3.53;;;1.83;;
66597;SDS011;57424;53.128;6.406;2022-10-16T06:53:51;2.17;;;1.20;;
66597;SDS011;57424;53.128;6.406;2022-10-16T06:56:22;5.10;;;1.40;;
66597;SDS011;57424;53.128;6.406;2022-10-16T06:58:50;4.50;;;1.30;;
66597;SDS011;57424;53.128;6.406;2022-10-16T07:01:17;2.45;;;1.70;;
66597;SDS011;57424;53.128;6.406;2022-10-16T07:03:44;2.78;;;1.42;;
66597;SDS011;57424;53.128;6.406;2022-10-16T07:06:12;10.77;;;1.40;;
66597;SDS011;57424;53.128;6.406;2022-10-16T07:08:39;3.55;;;1.73;;
66597;SDS011;57424;53.128;6.406;2022-10-16T07:11:07;3.83;;;1.30;;
66597;SDS011;57424;53.128;6.406;2022-10-16T07:13:37;9.40;;;1.27;;
66597;SDS011;57424;53.128;6.406;2022-10-16T07:16:07;2.42;;;1.27;;
66597;SDS011;57424;53.128;6.406;2022-10-16T07:18:34;4.15;;;1.50;;
66597;SDS011;57424;53.128;6.406;2022-10-16T07:21:08;1.80;;;1.20;;
66597;SDS011;57424;53.128;6.406;2022-10-16T07:23:36;2.97;;;1.35;;
66597;SDS011;57424;53.128;6.406;2022-10-16T07:26:02;2.50;;;1.40;;
66597;SDS011;57424;53.128;6.406;2022-10-16T07:28:28;3.13;;;1.33;;
66597;SDS011;57424;53.128;6.406;2022-10-16T07:30:54;3.58;;;1.10;;
66597;SDS011;57424;53.128;6.406;2022-10-16T07:33:20;3.35;;;1.40;;
66597;SDS011;57424;53.128;6.406;2022-10-16T07:35:50;4.00;;;1.50;;
66597;SDS011;57424;53.128;6.406;2022-10-16T07:38:16;2.20;;;1.20;;
66597;SDS011;57424;53.128;6.406;2022-10-16T07:40:42;1.75;;;1.20;;
66597;SDS011;57424;53.128;6.406;2022-10-16T07:43:08;3.58;;;1.48;;
66597;SDS011;57424;53.128;6.406;2022-10-16T07:45:34;3.17;;;1.27;;
66597;SDS011;57424;53.128;6.406;2022-10-16T07:47:59;2.58;;;1.33;;
66597;SDS011;57424;53.128;6.406;2022-10-16T07:50:25;4.82;;;1.55;;
66597;SDS011;57424;53.128;6.406;2022-10-16T07:52:50;2.70;;;1.33;;
66597;SDS011;57424;53.128;6.406;2022-10-16T07:55:17;1.75;;;1.50;;
66597;SDS011;57424;53.128;6.406;2022-10-16T07:57:42;2.97;;;1.20;;
66597;SDS011;57424;53.128;6.406;2022-10-16T08:00:08;3.72;;;1.20;;
66597;SDS011;57424;53.128;6.406;2022-10-16T08:02:38;5.05;;;1.33;;
66597;SDS011;57424;53.128;6.406;2022-10-16T08:05:05;1.48;;;1.00;;
66597;SDS011;57424;53.128;6.406;2022-10-16T08:07:31;2.38;;;1.17;;
66597;SDS011;57424;53.128;6.406;2022-10-16T08:09:56;6.18;;;1.17;;
66597;SDS011;57424;53.128;6.406;2022-10-16T08:12:23;3.58;;;1.35;;
66597;SDS011;57424;53.128;6.406;2022-10-16T08:14:49;5.40;;;1.70;;
66597;SDS011;57424;53.128;6.406;2022-10-16T08:17:15;2.10;;;1.20;;
66597;SDS011;57424;53.128;6.406;2022-10-16T08:19:43;1.77;;;1.10;;
66597;SDS011;57424;53.128;6.406;2022-10-16T08:22:10;3.03;;;1.02;;
66597;SDS011;57424;53.128;6.406;2022-10-16T08:24:35;2.28;;;1.10;;
66597;SDS011;57424;53.128;6.406;2022-10-16T08:27:01;4.25;;;1.20;;
66597;SDS011;57424;53.128;6.406;2022-10-16T08:29:27;2.45;;;1.20;;
66597;SDS011;57424;53.128;6.406;2022-10-16T08:31:53;3.80;;;1.20;;
66597;SDS011;57424;53.128;6.406;2022-10-16T08:34:18;3.03;;;1.20;;
66597;SDS011;57424;53.128;6.406;2022-10-16T08:36:44;2.10;;;1.02;;
66597;SDS011;57424;53.128;6.406;2022-10-16T08:39:10;1.60;;;1.05;;
66597;SDS011;57424;53.128;6.406;2022-10-16T08:41:57;5.35;;;1.20;;
66597;SDS011;57424;53.128;6.406;2022-10-16T08:44:37;3.45;;;1.35;;
66597;SDS011;57424;53.128;6.406;2022-10-16T08:47:32;4.78;;;1.60;;
66597;SDS011;57424;53.128;6.406;2022-10-16T08:50:09;3.08;;;1.15;;
66597;SDS011;57424;53.128;6.406;2022-10-16T08:52:39;3.70;;;1.20;;
66597;SDS011;57424;53.128;6.406;2022-10-16T08:55:09;1.58;;;1.02;;
66597;SDS011;57424;53.128;6.406;2022-10-16T08:57:51;2.55;;;1.10;;
66597;SDS011;57424;53.128;6.406;2022-10-16T09:00:16;2.03;;;1.10;;
66597;SDS011;57424;53.128;6.406;2022-10-16T09:02:52;1.15;;;1.00;;
66597;SDS011;57424;53.128;6.406;2022-10-16T09:05:48;1.75;;;1.02;;
66597;SDS011;57424;53.128;6.406;2022-10-16T09:11:14;1.17;;;1.00;;
66597;SDS011;57424;53.128;6.406;2022-10-16T09:13:48;3.55;;;1.20;;
66597;SDS011;57424;53.128;6.406;2022-10-16T09:16:19;2.88;;;1.48;;
66597;SDS011;57424;53.128;6.406;2022-10-16T09:21:36;1.42;;;0.90;;
66597;SDS011;57424;53.128;6.406;2022-10-16T09:24:11;2.53;;;1.30;;
66597;SDS011;57424;53.128;6.406;2022-10-16T09:26:40;3.58;;;1.50;;
66597;SDS011;57424;53.128;6.406;2022-10-16T09:29:08;3.55;;;1.65;;
66597;SDS011;57424;53.128;6.406;2022-10-16T09:31:36;1.58;;;0.88;;
66597;SDS011;57424;53.128;6.406;2022-10-16T09:34:02;2.63;;;1.23;;
66597;SDS011;57424;53.128;6.406;2022-10-16T09:36:31;3.33;;;1.30;;
66597;SDS011;57424;53.128;6.406;2022-10-16T09:39:07;4.35;;;1.30;;
66597;SDS011;57424;53.128;6.406;2022-10-16T09:41:39;1.95;;;1.10;;
66597;SDS011;57424;53.128;6.406;2022-10-16T09:44:18;2.85;;;1.00;;
66597;SDS011;57424;53.128;6.406;2022-10-16T09:47:05;2.97;;;1.10;;
66597;SDS011;57424;53.128;6.406;2022-10-16T09:49:39;3.13;;;1.25;;
66597;SDS011;57424;53.128;6.406;2022-10-16T09:52:15;2.08;;;1.10;;
66597;SDS011;57424;53.128;6.406;2022-10-16T09:54:51;2.85;;;1.13;;
66597;SDS011;57424;53.128;6.406;2022-10-16T09:57:20;2.47;;;1.02;;
66597;SDS011;57424;53.128;6.406;2022-10-16T09:59:47;2.33;;;1.20;;
66597;SDS011;57424;53.128;6.406;2022-10-16T10:02:16;4.00;;;1.30;;
66597;SDS011;57424;53.128;6.406;2022-10-16T10:04:53;2.72;;;1.27;;
66597;SDS011;57424;53.128;6.406;2022-10-16T10:07:36;2.85;;;1.20;;
66597;SDS011;57424;53.128;6.406;2022-10-16T10:10:18;3.65;;;1.30;;
66597;SDS011;57424;53.128;6.406;2022-10-16T10:12:46;3.00;;;1.40;;
66597;SDS011;57424;53.128;6.406;2022-10-16T10:15:12;3.53;;;1.63;;
66597;SDS011;57424;53.128;6.406;2022-10-16T10:17:46;2.30;;;1.20;;
66597;SDS011;57424;53.128;6.406;2022-10-16T10:20:22;3.67;;;1.42;;
66597;SDS011;57424;53.128;6.406;2022-10-16T10:22:57;2.35;;;1.23;;
66597;SDS011;57424;53.128;6.406;2022-10-16T10:25:35;2.92;;;1.20;;
66597;SDS011;57424;53.128;6.406;2022-10-16T10:28:21;2.45;;;1.05;;
66597;SDS011;57424;53.128;6.406;2022-10-16T10:31:13;3.90;;;1.23;;
66597;SDS011;57424;53.128;6.406;2022-10-16T10:36:39;2.55;;;1.15;;
66597;SDS011;57424;53.128;6.406;2022-10-16T10:39:12;3.03;;;1.00;;
66597;SDS011;57424;53.128;6.406;2022-10-16T10:44:30;3.13;;;1.20;;
66597;SDS011;57424;53.128;6.406;2022-10-16T11:00:30;2.00;;;1.00;;
66597;SDS011;57424;53.128;6.406;2022-10-16T11:06:04;2.50;;;1.05;;
66597;SDS011;57424;53.128;6.406;2022-10-16T11:08:34;1.52;;;0.80;;
66597;SDS011;57424;53.128;6.406;2022-10-16T11:11:08;4.15;;;1.10;;
66597;SDS011;57424;53.128;6.406;2022-10-16T11:13:45;3.00;;;1.00;;
66597;SDS011;57424;53.128;6.406;2022-10-16T11:16:37;3.33;;;1.10;;
66597;SDS011;57424;53.128;6.406;2022-10-16T11:21:42;3.30;;;1.20;;
66597;SDS011;57424;53.128;6.406;2022-10-16T11:27:17;4.13;;;1.10;;
66597;SDS011;57424;53.128;6.406;2022-10-16T11:29:55;3.20;;;1.27;;
66597;SDS011;57424;53.128;6.406;2022-10-16T11:32:27;3.28;;;1.17;;
66597;SDS011;57424;53.128;6.406;2022-10-16T11:35:00;6.25;;;1.42;;
66597;SDS011;57424;53.128;6.406;2022-10-16T11:37:36;3.30;;;1.00;;
66597;SDS011;57424;53.128;6.406;2022-10-16T11:51:24;3.67;;;1.23;;
66597;SDS011;57424;53.128;6.406;2022-10-16T11:56:47;4.75;;;1.40;;
66597;SDS011;57424;53.128;6.406;2022-10-16T12:01:49;5.40;;;1.30;;
66597;SDS011;57424;53.128;6.406;2022-10-16T12:04:49;4.90;;;1.25;;
66597;SDS011;57424;53.128;6.406;2022-10-16T12:07:41;3.10;;;1.15;;
66597;SDS011;57424;53.128;6.406;2022-10-16T12:10:23;2.90;;;1.40;;
66597;SDS011;57424;53.128;6.406;2022-10-16T12:12:51;5.93;;;1.20;;
66597;SDS011;57424;53.128;6.406;2022-10-16T12:15:19;5.70;;;1.30;;
66597;SDS011;57424;53.128;6.406;2022-10-16T12:17:51;3.70;;;0.90;;
66597;SDS011;57424;53.128;6.406;2022-10-16T12:22:48;5.07;;;1.48;;
66597;SDS011;57424;53.128;6.406;2022-10-16T12:27:58;5.93;;;1.88;;
66597;SDS011;57424;53.128;6.406;2022-10-16T12:30:27;4.13;;;1.15;;
66597;SDS011;57424;53.128;6.406;2022-10-16T12:32:55;2.00;;;1.00;;
66597;SDS011;57424;53.128;6.406;2022-10-16T12:35:27;3.80;;;1.20;;
66597;SDS011;57424;53.128;6.406;2022-10-16T12:38:06;3.33;;;1.25;;
66597;SDS011;57424;53.128;6.406;2022-10-16T12:40:37;5.18;;;1.60;;
66597;SDS011;57424;53.128;6.406;2022-10-16T12:48:32;3.33;;;1.15;;
66597;SDS011;57424;53.128;6.406;2022-10-16T12:51:09;5.10;;;1.27;;
66597;SDS011;57424;53.128;6.406;2022-10-16T12:53:57;6.78;;;1.55;;
66597;SDS011;57424;53.128;6.406;2022-10-16T12:56:41;3.90;;;1.02;;
66597;SDS011;57424;53.128;6.406;2022-10-16T12:59:14;3.78;;;1.17;;
66597;SDS011;57424;53.128;6.406;2022-10-16T13:13:15;4.72;;;1.13;;
66597;SDS011;57424;53.128;6.406;2022-10-16T13:16:06;4.50;;;1.45;;
66597;SDS011;57424;53.128;6.406;2022-10-16T13:27:34;5.45;;;1.90;;
66597;SDS011;57424;53.128;6.406;2022-10-16T13:30:09;8.32;;;1.35;;
66597;SDS011;57424;53.128;6.406;2022-10-16T13:32:38;6.38;;;1.40;;
66597;SDS011;57424;53.128;6.406;2022-10-16T13:35:17;5.78;;;1.27;;
66597;SDS011;57424;53.128;6.406;2022-10-16T13:37:47;5.40;;;1.50;;
66597;SDS011;57424;53.128;6.406;2022-10-16T13:40:21;5.57;;;1.38;;
66597;SDS011;57424;53.128;6.406;2022-10-16T13:42:48;3.65;;;1.23;;
66597;SDS011;57424;53.128;6.406;2022-10-16T13:45:22;5.28;;;1.35;;
66597;SDS011;57424;53.128;6.406;2022-10-16T13:47:50;5.05;;;1.33;;
66597;SDS011;57424;53.128;6.406;2022-10-16T13:50:26;7.30;;;1.52;;
66597;SDS011;57424;53.128;6.406;2022-10-16T13:52:51;4.38;;;1.20;;
66597;SDS011;57424;53.128;6.406;2022-10-16T13:55:27;5.38;;;1.60;;
66597;SDS011;57424;53.128;6.406;2022-10-16T13:57:53;8.20;;;1.48;;
66597;SDS011;57424;53.128;6.406;2022-10-16T14:00:30;6.13;;;1.40;;
66597;SDS011;57424;53.128;6.406;2022-10-16T14:03:15;5.70;;;1.33;;
66597;SDS011;57424;53.128;6.406;2022-10-16T14:05:45;7.28;;;1.70;;
66597;SDS011;57424;53.128;6.406;2022-10-16T14:08:14;5.53;;;1.52;;
66597;SDS011;57424;53.128;6.406;2022-10-16T14:10:40;4.53;;;1.50;;
66597;SDS011;57424;53.128;6.406;2022-10-16T14:13:06;9.35;;;1.85;;
66597;SDS011;57424;53.128;6.406;2022-10-16T14:15:34;5.30;;;1.33;;
66597;SDS011;57424;53.128;6.406;2022-10-16T14:18:01;6.00;;;1.30;;
66597;SDS011;57424;53.128;6.406;2022-10-16T14:20:29;6.50;;;1.55;;
66597;SDS011;57424;53.128;6.406;2022-10-16T14:23:16;7.15;;;1.65;;
66597;SDS011;57424;53.128;6.406;2022-10-16T14:25:44;5.68;;;1.40;;
66597;SDS011;57424;53.128;6.406;2022-10-16T14:30:56;8.13;;;1.73;;
66597;SDS011;57424;53.128;6.406;2022-10-16T14:33:24;5.03;;;1.60;;
66597;SDS011;57424;53.128;6.406;2022-10-16T14:36:01;6.63;;;1.58;;
66597;SDS011;57424;53.128;6.406;2022-10-16T14:38:39;7.07;;;1.90;;
66597;SDS011;57424;53.128;6.406;2022-10-16T14:41:07;5.95;;;1.35;;
66597;SDS011;57424;53.128;6.406;2022-10-16T14:43:34;8.77;;;1.60;;
66597;SDS011;57424;53.128;6.406;2022-10-16T14:46:21;5.57;;;1.60;;
66597;SDS011;57424;53.128;6.406;2022-10-16T14:49:03;6.57;;;1.65;;
66597;SDS011;57424;53.128;6.406;2022-10-16T14:51:41;6.63;;;1.52;;
66597;SDS011;57424;53.128;6.406;2022-10-16T14:54:09;6.88;;;1.65;;
66597;SDS011;57424;53.128;6.406;2022-10-16T14:56:43;6.40;;;1.70;;
66597;SDS011;57424;53.128;6.406;2022-10-16T14:59:31;7.00;;;1.63;;
66597;SDS011;57424;53.128;6.406;2022-10-16T15:04:47;5.65;;;1.50;;
66597;SDS011;57424;53.128;6.406;2022-10-16T15:07:13;5.40;;;1.70;;
66597;SDS011;57424;53.128;6.406;2022-10-16T15:09:39;7.22;;;1.23;;
66597;SDS011;57424;53.128;6.406;2022-10-16T15:12:04;7.32;;;1.35;;
66597;SDS011;57424;53.128;6.406;2022-10-16T15:14:30;6.85;;;1.95;;
66597;SDS011;57424;53.128;6.406;2022-10-16T15:16:55;2.55;;;1.08;;
66597;SDS011;57424;53.128;6.406;2022-10-16T15:19:21;5.28;;;1.35;;
66597;SDS011;57424;53.128;6.406;2022-10-16T15:21:47;7.68;;;1.50;;
66597;SDS011;57424;53.128;6.406;2022-10-16T15:24:12;8.10;;;1.35;;
66597;SDS011;57424;53.128;6.406;2022-10-16T15:26:38;8.05;;;1.40;;
66597;SDS011;57424;53.128;6.406;2022-10-16T15:29:04;5.75;;;1.27;;
66597;SDS011;57424;53.128;6.406;2022-10-16T15:31:30;7.28;;;1.63;;
66597;SDS011;57424;53.128;6.406;2022-10-16T15:33:56;4.45;;;1.48;;
66597;SDS011;57424;53.128;6.406;2022-10-16T15:36:30;5.30;;;1.15;;
66597;SDS011;57424;53.128;6.406;2022-10-16T15:39:02;7.35;;;1.50;;
66597;SDS011;57424;53.128;6.406;2022-10-16T15:41:28;6.60;;;1.10;;
66597;SDS011;57424;53.128;6.406;2022-10-16T15:43:54;5.63;;;1.35;;
66597;SDS011;57424;53.128;6.406;2022-10-16T15:46:20;7.72;;;1.60;;
66597;SDS011;57424;53.128;6.406;2022-10-16T15:48:47;6.70;;;1.77;;
66597;SDS011;57424;53.128;6.406;2022-10-16T15:51:14;4.63;;;1.40;;
66597;SDS011;57424;53.128;6.406;2022-10-16T15:53:40;5.13;;;1.23;;
66597;SDS011;57424;53.128;6.406;2022-10-16T15:56:06;3.85;;;1.02;;
66597;SDS011;57424;53.128;6.406;2022-10-16T15:58:33;5.60;;;1.48;;
66597;SDS011;57424;53.128;6.406;2022-10-16T16:00:59;4.18;;;1.38;;
66597;SDS011;57424;53.128;6.406;2022-10-16T16:03:27;5.38;;;1.50;;
66597;SDS011;57424;53.128;6.406;2022-10-16T16:05:53;5.78;;;1.40;;
66597;SDS011;57424;53.128;6.406;2022-10-16T16:08:19;5.13;;;1.63;;
66597;SDS011;57424;53.128;6.406;2022-10-16T16:10:45;6.13;;;1.33;;
66597;SDS011;57424;53.128;6.406;2022-10-16T16:13:10;6.30;;;2.22;;
66597;SDS011;57424;53.128;6.406;2022-10-16T16:15:39;4.00;;;1.00;;
66597;SDS011;57424;53.128;6.406;2022-10-16T16:18:06;5.57;;;1.30;;
66597;SDS011;57424;53.128;6.406;2022-10-16T16:20:31;5.38;;;0.95;;
66597;SDS011;57424;53.128;6.406;2022-10-16T16:22:57;5.60;;;1.20;;
66597;SDS011;57424;53.128;6.406;2022-10-16T16:25:22;6.45;;;1.02;;
66597;SDS011;57424;53.128;6.406;2022-10-16T16:27:48;6.05;;;1.08;;
66597;SDS011;57424;53.128;6.406;2022-10-16T16:30:14;3.63;;;0.90;;
66597;SDS011;57424;53.128;6.406;2022-10-16T16:32:39;4.95;;;1.17;;
66597;SDS011;57424;53.128;6.406;2022-10-16T16:35:05;4.70;;;0.98;;
66597;SDS011;57424;53.128;6.406;2022-10-16T16:37:31;6.57;;;2.20;;
66597;SDS011;57424;53.128;6.406;2022-10-16T16:39:56;5.63;;;2.00;;
66597;SDS011;57424;53.128;6.406;2022-10-16T16:42:25;6.25;;;1.55;;
66597;SDS011;57424;53.128;6.406;2022-10-16T16:44:51;8.43;;;1.88;;
66597;SDS011;57424;53.128;6.406;2022-10-16T16:47:17;7.13;;;1.40;;
66597;SDS011;57424;53.128;6.406;2022-10-16T16:49:43;6.72;;;1.30;;